createdAt,value
2023-03-15T00:00:01.168Z,0.00
2023-03-15T00:01:01.172Z,0.00
2023-03-15T00:02:01.304Z,0.00
2023-03-15T00:03:01.183Z,0.00
2023-03-15T00:04:01.278Z,0.00
2023-03-15T00:05:01.197Z,0.00
2023-03-15T00:06:01.225Z,0.00
2023-03-15T00:07:01.214Z,0.00
2023-03-15T00:08:02.790Z,0.00
2023-03-15T00:09:01.227Z,0.00
2023-03-15T00:10:01.241Z,0.00
2023-03-15T00:11:01.242Z,0.00
2023-03-15T00:12:01.256Z,0.00
2023-03-15T00:13:01.262Z,0.00
2023-03-15T00:14:01.265Z,0.00
2023-03-15T00:15:01.274Z,0.00
2023-03-15T00:16:01.368Z,0.00
2023-03-15T00:17:01.287Z,0.00
2023-03-15T00:18:01.317Z,0.00
2023-03-15T00:19:01.306Z,0.00
2023-03-15T00:20:01.351Z,0.00
2023-03-15T00:21:01.326Z,0.00
2023-03-15T00:22:01.327Z,0.00
2023-03-15T00:23:01.335Z,0.00
2023-03-15T00:24:01.346Z,0.00
2023-03-15T00:25:01.350Z,0.00
2023-03-15T00:26:01.354Z,0.00
2023-03-15T00:27:01.360Z,0.00
2023-03-15T00:28:01.371Z,0.00
2023-03-15T00:29:01.380Z,0.00
2023-03-15T00:30:01.388Z,0.00
2023-03-15T00:31:01.404Z,0.00
2023-03-15T00:32:01.402Z,0.00
2023-03-15T00:33:01.414Z,0.00
2023-03-15T00:34:01.415Z,0.00
2023-03-15T00:35:01.430Z,0.00
2023-03-15T00:36:01.469Z,0.00
2023-03-15T00:37:01.443Z,0.00
2023-03-15T00:38:01.446Z,0.00
2023-03-15T00:39:01.458Z,0.00
2023-03-15T00:40:01.487Z,0.00
2023-03-15T00:41:01.471Z,0.00
2023-03-15T00:42:01.484Z,0.00
2023-03-15T00:43:01.492Z,0.00
2023-03-15T00:44:01.501Z,0.00
2023-03-15T00:45:01.504Z,0.00
2023-03-15T00:46:01.510Z,0.00
2023-03-15T00:47:01.515Z,0.00
2023-03-15T00:48:01.529Z,0.00
2023-03-15T00:49:01.535Z,0.00
2023-03-15T00:50:01.549Z,0.00
2023-03-15T00:51:01.561Z,0.00
2023-03-15T00:52:01.570Z,0.00
2023-03-15T00:53:01.564Z,0.00
2023-03-15T00:54:01.578Z,0.00
2023-03-15T00:55:01.576Z,0.00
2023-03-15T00:56:01.589Z,0.00
2023-03-15T00:57:01.592Z,0.00
2023-03-15T00:58:01.603Z,0.00
2023-03-15T00:59:01.618Z,0.00
2023-03-15T01:00:01.614Z,0.00
2023-03-15T01:01:01.623Z,0.00
2023-03-15T01:02:01.681Z,0.00
2023-03-15T01:03:01.670Z,0.00
2023-03-15T01:04:01.657Z,0.00
2023-03-15T01:05:01.660Z,0.00
2023-03-15T01:06:01.659Z,0.00
2023-03-15T01:07:01.667Z,0.00
2023-03-15T01:08:01.675Z,0.00
2023-03-15T01:09:01.722Z,0.00
2023-03-15T01:10:01.690Z,0.00
2023-03-15T01:11:01.699Z,0.00
2023-03-15T01:12:01.704Z,0.00
2023-03-15T01:13:01.721Z,0.00
2023-03-15T01:14:01.720Z,0.00
2023-03-15T01:15:01.737Z,0.00
2023-03-15T01:16:01.739Z,0.00
2023-03-15T01:17:01.752Z,0.00
2023-03-15T01:18:01.761Z,0.00
2023-03-15T01:19:01.761Z,0.00
2023-03-15T01:20:01.770Z,0.00
2023-03-15T01:21:01.775Z,0.00
2023-03-15T01:22:01.781Z,0.00
2023-03-15T01:23:01.787Z,0.00
2023-03-15T01:24:01.795Z,0.00
2023-03-15T01:25:01.802Z,0.00
2023-03-15T01:26:01.814Z,0.00
2023-03-15T01:27:01.816Z,0.00
2023-03-15T01:28:01.825Z,0.00
2023-03-15T01:29:01.842Z,0.00
2023-03-15T01:30:01.840Z,0.00
2023-03-15T01:31:01.906Z,0.00
2023-03-15T01:32:01.855Z,0.00
2023-03-15T01:33:01.859Z,0.00
2023-03-15T01:34:01.870Z,0.00
2023-03-15T01:35:01.893Z,0.00
2023-03-15T01:36:01.954Z,0.00
2023-03-15T01:37:01.891Z,0.00
2023-03-15T01:38:01.895Z,0.00
2023-03-15T01:39:01.907Z,0.00
2023-03-15T01:40:01.917Z,0.00
2023-03-15T01:41:01.927Z,0.00
2023-03-15T01:42:01.928Z,0.00
2023-03-15T01:43:01.942Z,0.00
2023-03-15T01:44:01.944Z,0.00
2023-03-15T01:45:01.950Z,0.00
2023-03-15T01:46:01.957Z,0.00
2023-03-15T01:47:02.024Z,0.00
2023-03-15T01:48:01.996Z,0.00
2023-03-15T01:49:01.981Z,0.00
2023-03-15T01:50:01.987Z,0.00
2023-03-15T01:51:01.999Z,0.00
2023-03-15T01:52:01.999Z,0.00
2023-03-15T01:53:02.007Z,0.00
2023-03-15T01:54:02.019Z,0.00
2023-03-15T01:55:02.026Z,0.00
2023-03-15T01:56:02.035Z,0.00
2023-03-15T01:57:02.045Z,0.00
2023-03-15T01:58:02.070Z,0.00
2023-03-15T01:59:02.055Z,0.00
2023-03-15T02:00:02.119Z,0.00
2023-03-15T02:01:02.124Z,0.00
2023-03-15T02:02:02.136Z,0.00
2023-03-15T02:03:02.081Z,0.00
2023-03-15T02:04:02.092Z,0.00
2023-03-15T02:05:02.140Z,0.00
2023-03-15T02:06:02.115Z,0.00
2023-03-15T02:07:02.115Z,0.00
2023-03-15T02:08:02.120Z,0.00
2023-03-15T02:09:02.133Z,0.00
2023-03-15T02:10:02.138Z,0.00
2023-03-15T02:11:02.153Z,0.00
2023-03-15T02:12:02.150Z,0.00
2023-03-15T02:13:02.164Z,0.00
2023-03-15T02:14:02.182Z,0.00
2023-03-15T02:15:02.195Z,0.00
2023-03-15T02:16:02.238Z,0.00
2023-03-15T02:17:02.188Z,0.00
2023-03-15T02:18:02.193Z,0.00
2023-03-15T02:19:02.202Z,0.00
2023-03-15T02:20:02.211Z,0.00
2023-03-15T02:21:02.219Z,0.00
2023-03-15T02:22:02.222Z,0.00
2023-03-15T02:23:02.237Z,0.00
2023-03-15T02:24:02.236Z,0.00
2023-03-15T02:25:02.246Z,0.00
2023-03-15T02:26:02.265Z,0.00
2023-03-15T02:27:02.336Z,0.00
2023-03-15T02:28:02.264Z,0.00
2023-03-15T02:29:02.284Z,0.00
2023-03-15T02:30:02.297Z,0.00
2023-03-15T02:31:02.290Z,0.00
2023-03-15T02:32:02.395Z,0.00
2023-03-15T02:33:02.308Z,0.00
2023-03-15T02:34:02.321Z,0.00
2023-03-15T02:35:02.355Z,0.00
2023-03-15T02:36:02.435Z,0.00
2023-03-15T02:37:02.342Z,0.00
2023-03-15T02:38:02.336Z,0.00
2023-03-15T02:39:02.343Z,0.00
2023-03-15T02:40:02.362Z,0.00
2023-03-15T02:41:02.360Z,0.00
2023-03-15T02:42:02.365Z,0.00
2023-03-15T02:43:02.374Z,0.00
2023-03-15T02:44:02.380Z,0.00
2023-03-15T02:45:02.388Z,0.00
2023-03-15T02:46:02.421Z,0.00
2023-03-15T02:47:02.402Z,0.00
2023-03-15T02:48:02.410Z,0.00
2023-03-15T02:49:02.418Z,0.00
2023-03-15T02:50:02.427Z,0.00
2023-03-15T02:51:02.432Z,0.00
2023-03-15T02:52:02.440Z,0.00
2023-03-15T02:53:02.447Z,0.00
2023-03-15T02:54:02.461Z,0.00
2023-03-15T02:55:02.457Z,0.00
2023-03-15T02:56:02.467Z,0.00
2023-03-15T02:57:02.478Z,0.00
2023-03-15T02:58:02.486Z,0.00
2023-03-15T02:59:02.489Z,0.00
2023-03-15T03:00:02.497Z,0.00
2023-03-15T03:01:02.547Z,0.00
2023-03-15T03:02:02.563Z,0.00
2023-03-15T03:03:02.520Z,0.00
2023-03-15T03:04:02.530Z,0.00
2023-03-15T03:05:02.536Z,0.00
2023-03-15T03:06:02.545Z,0.00
2023-03-15T03:07:02.547Z,0.00
2023-03-15T03:08:02.556Z,0.00
2023-03-15T03:09:02.564Z,0.00
2023-03-15T03:10:02.569Z,0.00
2023-03-15T03:11:02.579Z,0.00
2023-03-15T03:12:02.622Z,0.00
2023-03-15T03:13:02.595Z,0.00
2023-03-15T03:14:02.596Z,0.00
2023-03-15T03:15:02.604Z,0.00
2023-03-15T03:16:02.609Z,0.00
2023-03-15T03:17:02.698Z,0.00
2023-03-15T03:18:02.625Z,0.00
2023-03-15T03:19:02.633Z,0.00
2023-03-15T03:20:02.656Z,0.00
2023-03-15T03:21:02.646Z,0.00
2023-03-15T03:22:02.650Z,0.00
2023-03-15T03:23:02.656Z,0.00
2023-03-15T03:24:02.663Z,0.00
2023-03-15T03:25:02.682Z,0.00
2023-03-15T03:26:02.677Z,0.00
2023-03-15T03:27:02.683Z,0.00
2023-03-15T03:28:02.697Z,0.00
2023-03-15T03:29:02.700Z,0.00
2023-03-15T03:30:02.715Z,0.00
2023-03-15T03:31:02.788Z,0.00
2023-03-15T03:32:02.719Z,0.00
2023-03-15T03:33:02.797Z,0.00
2023-03-15T03:34:02.730Z,0.00
2023-03-15T03:35:02.738Z,0.00
2023-03-15T03:36:02.783Z,0.00
2023-03-15T03:37:02.754Z,0.00
2023-03-15T03:38:02.782Z,0.00
2023-03-15T03:39:02.766Z,0.00
2023-03-15T03:40:02.772Z,0.00
2023-03-15T03:41:02.781Z,0.00
2023-03-15T03:42:02.786Z,0.00
2023-03-15T03:43:02.805Z,0.00
2023-03-15T03:44:02.803Z,0.00
2023-03-15T03:45:02.807Z,0.00
2023-03-15T03:46:02.878Z,0.00
2023-03-15T03:47:02.820Z,0.00
2023-03-15T03:48:02.833Z,0.00
2023-03-15T03:49:02.836Z,0.00
2023-03-15T03:50:02.848Z,0.00
2023-03-15T03:51:02.847Z,0.00
2023-03-15T03:52:02.874Z,0.00
2023-03-15T03:53:02.868Z,0.00
2023-03-15T03:54:02.869Z,0.00
2023-03-15T03:55:02.879Z,0.00
2023-03-15T03:56:02.890Z,0.00
2023-03-15T03:57:02.894Z,0.00
2023-03-15T03:58:02.898Z,0.00
2023-03-15T03:59:02.905Z,0.00
2023-03-15T04:00:02.913Z,0.00
2023-03-15T04:01:02.918Z,0.00
2023-03-15T04:02:02.927Z,0.00
2023-03-15T04:03:02.933Z,0.00
2023-03-15T04:04:02.939Z,0.00
2023-03-15T04:05:02.945Z,0.00
2023-03-15T04:06:02.952Z,0.00
2023-03-15T04:07:02.959Z,0.00
2023-03-15T04:08:02.980Z,0.00
2023-03-15T04:09:02.981Z,0.00
2023-03-15T04:10:02.984Z,0.00
2023-03-15T04:11:02.987Z,0.00
2023-03-15T04:12:03.107Z,0.00
2023-03-15T04:13:03.001Z,0.00
2023-03-15T04:14:03.023Z,0.00
2023-03-15T04:15:03.013Z,0.00
2023-03-15T04:16:03.047Z,0.00
2023-03-15T04:17:03.027Z,0.00
2023-03-15T04:18:03.033Z,0.00
2023-03-15T04:19:03.041Z,0.00
2023-03-15T04:20:03.046Z,0.00
2023-03-15T04:21:03.064Z,0.00
2023-03-15T04:22:03.118Z,0.00
2023-03-15T04:23:03.072Z,0.00
2023-03-15T04:24:03.075Z,0.00
2023-03-15T04:25:03.082Z,0.00
2023-03-15T04:26:03.088Z,0.00
2023-03-15T04:27:03.096Z,0.00
2023-03-15T04:28:03.104Z,0.00
2023-03-15T04:29:03.110Z,0.00
2023-03-15T04:30:03.117Z,0.00
2023-03-15T04:31:03.156Z,0.00
2023-03-15T04:32:03.139Z,0.00
2023-03-15T04:33:03.140Z,0.00
2023-03-15T04:34:03.146Z,0.00
2023-03-15T04:35:03.155Z,0.00
2023-03-15T04:36:03.221Z,0.00
2023-03-15T04:37:03.177Z,0.00
2023-03-15T04:38:03.175Z,0.00
2023-03-15T04:39:03.205Z,0.00
2023-03-15T04:40:03.187Z,0.00
2023-03-15T04:41:03.195Z,0.00
2023-03-15T04:42:03.203Z,0.00
2023-03-15T04:43:03.216Z,0.00
2023-03-15T04:44:03.221Z,0.00
2023-03-15T04:45:03.226Z,0.00
2023-03-15T04:46:03.225Z,0.00
2023-03-15T04:47:03.258Z,0.00
2023-03-15T04:48:03.243Z,0.00
2023-03-15T04:49:03.250Z,0.00
2023-03-15T04:50:03.264Z,4.00
2023-03-15T04:51:03.262Z,4.00
2023-03-15T04:52:03.272Z,0.00
2023-03-15T04:53:03.288Z,4.00
2023-03-15T04:54:03.285Z,4.00
2023-03-15T04:55:03.293Z,8.00
2023-03-15T04:56:04.855Z,4.00
2023-03-15T04:57:03.311Z,8.00
2023-03-15T04:58:03.314Z,8.00
2023-03-15T04:59:03.318Z,8.00
2023-03-15T05:00:03.332Z,12.00
2023-03-15T05:01:03.404Z,12.00
2023-03-15T05:02:04.074Z,16.00
2023-03-15T05:03:03.348Z,20.00
2023-03-15T05:04:03.352Z,24.00
2023-03-15T05:05:03.356Z,28.00
2023-03-15T05:06:03.363Z,32.00
2023-03-15T05:07:03.369Z,40.00
2023-03-15T05:08:03.376Z,48.00
2023-03-15T05:09:03.381Z,52.00
2023-03-15T05:10:03.388Z,64.00
2023-03-15T05:11:03.400Z,72.00
2023-03-15T05:12:03.400Z,84.00
2023-03-15T05:13:03.407Z,96.00
2023-03-15T05:14:03.413Z,108.00
2023-03-15T05:15:03.518Z,124.00
2023-03-15T05:16:03.474Z,140.00
2023-03-15T05:17:03.439Z,160.00
2023-03-15T05:18:03.439Z,176.00
2023-03-15T05:19:03.447Z,200.00
2023-03-15T05:20:03.452Z,228.00
2023-03-15T05:21:03.459Z,256.00
2023-03-15T05:22:03.464Z,288.00
2023-03-15T05:23:03.472Z,320.00
2023-03-15T05:24:03.483Z,348.00
2023-03-15T05:25:03.488Z,376.00
2023-03-15T05:26:03.497Z,408.00
2023-03-15T05:27:03.499Z,440.00
2023-03-15T05:28:03.504Z,472.00
2023-03-15T05:29:03.517Z,508.00
2023-03-15T05:30:03.521Z,548.00
2023-03-15T05:31:03.526Z,588.00
2023-03-15T05:32:03.564Z,628.00
2023-03-15T05:33:03.537Z,672.00
2023-03-15T05:34:03.543Z,716.00
2023-03-15T05:35:03.554Z,780.00
2023-03-15T05:36:03.563Z,860.00
2023-03-15T05:37:03.569Z,944.00
2023-03-15T05:38:03.592Z,1004.00
2023-03-15T05:39:03.596Z,1056.00
2023-03-15T05:40:03.584Z,1124.00
2023-03-15T05:41:03.600Z,1208.00
2023-03-15T05:42:03.594Z,1280.00
2023-03-15T05:43:03.599Z,1348.00
2023-03-15T05:44:03.616Z,1392.00
2023-03-15T05:45:03.618Z,1416.00
2023-03-15T05:46:03.643Z,1432.00
2023-03-15T05:47:03.637Z,1436.00
2023-03-15T05:48:03.633Z,1448.00
2023-03-15T05:49:03.645Z,1460.00
2023-03-15T05:50:03.650Z,1468.00
2023-03-15T05:51:03.656Z,1488.00
2023-03-15T05:52:03.664Z,1520.00
2023-03-15T05:53:03.669Z,1576.00
2023-03-15T05:54:03.685Z,1632.00
2023-03-15T05:55:03.684Z,1692.00
2023-03-15T05:56:03.691Z,1752.00
2023-03-15T05:57:03.696Z,1812.00
2023-03-15T05:58:03.705Z,1884.00
2023-03-15T05:59:03.710Z,1984.00
2023-03-15T06:00:03.726Z,2108.00
2023-03-15T06:01:03.722Z,2232.00
2023-03-15T06:02:03.727Z,2328.00
2023-03-15T06:03:03.833Z,2444.00
2023-03-15T06:04:03.782Z,2516.00
2023-03-15T06:05:03.750Z,2564.00
2023-03-15T06:06:03.755Z,2688.00
2023-03-15T06:07:03.769Z,2772.00
2023-03-15T06:08:03.778Z,2696.00
2023-03-15T06:09:03.779Z,2480.00
2023-03-15T06:10:03.785Z,2272.00
2023-03-15T06:11:03.809Z,2080.00
2023-03-15T06:12:03.800Z,2076.00
2023-03-15T06:13:03.811Z,2316.00
2023-03-15T06:14:03.813Z,2628.00
2023-03-15T06:15:03.820Z,2876.00
2023-03-15T06:16:03.825Z,2980.00
2023-03-15T06:17:03.837Z,2908.00
2023-03-15T06:18:03.845Z,2660.00
2023-03-15T06:19:03.849Z,2256.00
2023-03-15T06:20:03.855Z,1780.00
2023-03-15T06:21:03.865Z,1492.00
2023-03-15T06:22:03.870Z,1344.00
2023-03-15T06:23:03.886Z,1400.00
2023-03-15T06:24:03.887Z,1488.00
2023-03-15T06:25:03.894Z,1572.00
2023-03-15T06:26:03.901Z,1412.00
2023-03-15T06:27:03.916Z,1004.00
2023-03-15T06:28:03.926Z,888.00
2023-03-15T06:29:03.930Z,928.00
2023-03-15T06:30:03.951Z,1132.00
2023-03-15T06:31:03.982Z,1376.00
2023-03-15T06:32:03.967Z,1664.00
2023-03-15T06:33:04.054Z,1884.00
2023-03-15T06:34:03.962Z,1828.00
2023-03-15T06:35:03.972Z,1888.00
2023-03-15T06:36:04.007Z,1816.00
2023-03-15T06:37:03.989Z,1740.00
2023-03-15T06:38:04.008Z,1772.00
2023-03-15T06:39:04.011Z,2008.00
2023-03-15T06:40:04.019Z,2376.00
2023-03-15T06:41:04.020Z,3248.00
2023-03-15T06:42:04.026Z,3924.00
2023-03-15T06:43:04.038Z,4204.00
2023-03-15T06:44:04.044Z,4288.00
2023-03-15T06:45:04.057Z,4252.00
2023-03-15T06:46:04.094Z,4612.00
2023-03-15T06:47:04.068Z,5304.00
2023-03-15T06:48:04.078Z,6084.00
2023-03-15T06:49:04.084Z,5992.00
2023-03-15T06:50:04.099Z,5628.00
2023-03-15T06:51:04.135Z,4760.00
2023-03-15T06:52:04.113Z,4064.00
2023-03-15T06:53:04.119Z,3964.00
2023-03-15T06:54:04.125Z,3868.00
2023-03-15T06:55:04.132Z,4276.00
2023-03-15T06:56:04.152Z,3652.00
2023-03-15T06:57:04.155Z,3644.00
2023-03-15T06:58:04.184Z,4444.00
2023-03-15T06:59:04.165Z,5240.00
2023-03-15T07:00:04.176Z,5148.00
2023-03-15T07:01:04.190Z,6004.00
2023-03-15T07:02:04.193Z,7324.00
2023-03-15T07:03:04.297Z,7464.00
2023-03-15T07:04:04.845Z,7088.00
2023-03-15T07:05:04.227Z,7148.00
2023-03-15T07:06:04.233Z,7152.00
2023-03-15T07:07:04.243Z,6928.00
2023-03-15T07:08:04.248Z,5596.00
2023-03-15T07:09:04.258Z,5416.00
2023-03-15T07:10:04.271Z,5720.00
2023-03-15T07:11:04.278Z,4756.00
2023-03-15T07:12:04.290Z,3832.00
2023-03-15T07:13:04.317Z,3768.00
2023-03-15T07:14:04.305Z,4060.00
2023-03-15T07:15:04.334Z,4624.00
2023-03-15T07:16:04.384Z,5296.00
2023-03-15T07:17:04.335Z,5508.00
2023-03-15T07:18:04.341Z,5136.00
2023-03-15T07:19:04.356Z,5464.00
2023-03-15T07:20:04.366Z,6312.00
2023-03-15T07:21:04.376Z,6376.00
2023-03-15T07:22:04.379Z,5624.00
2023-03-15T07:23:04.388Z,7376.00
2023-03-15T07:24:04.398Z,8892.00
2023-03-15T07:25:04.408Z,9716.00
2023-03-15T07:26:04.418Z,8848.00
2023-03-15T07:27:04.469Z,8992.00
2023-03-15T07:28:04.440Z,9316.00
2023-03-15T07:29:04.448Z,8472.00
2023-03-15T07:30:04.463Z,8484.00
2023-03-15T07:31:04.464Z,8412.00
2023-03-15T07:32:04.541Z,9348.00
2023-03-15T07:33:04.529Z,10136.00
2023-03-15T07:34:04.493Z,9348.00
2023-03-15T07:35:04.501Z,8380.00
2023-03-15T07:36:04.624Z,9892.00
2023-03-15T07:37:04.552Z,11576.00
2023-03-15T07:38:04.532Z,10868.00
2023-03-15T07:39:04.541Z,10368.00
2023-03-15T07:40:04.556Z,9096.00
2023-03-15T07:41:04.569Z,9612.00
2023-03-15T07:42:04.571Z,9792.00
2023-03-15T07:43:04.582Z,10836.00
2023-03-15T07:44:04.597Z,10872.00
2023-03-15T07:45:04.601Z,11828.00
2023-03-15T07:46:04.618Z,11820.00
2023-03-15T07:47:04.646Z,12976.00
2023-03-15T07:48:04.633Z,15060.00
2023-03-15T07:49:04.641Z,14920.00
2023-03-15T07:50:04.653Z,13680.00
2023-03-15T07:51:04.683Z,12164.00
2023-03-15T07:52:04.672Z,11032.00
2023-03-15T07:53:04.681Z,11976.00
2023-03-15T07:54:04.693Z,12908.00
2023-03-15T07:55:04.705Z,10916.00
2023-03-15T07:56:04.710Z,9952.00
2023-03-15T07:57:04.726Z,9300.00
2023-03-15T07:58:04.750Z,7960.00
2023-03-15T07:59:04.758Z,7724.00
2023-03-15T08:00:04.815Z,8852.00
2023-03-15T08:01:04.781Z,9532.00
2023-03-15T08:02:04.895Z,9748.00
2023-03-15T08:03:04.817Z,10156.00
2023-03-15T08:04:04.801Z,9560.00
2023-03-15T08:05:04.821Z,9512.00
2023-03-15T08:06:04.829Z,8012.00
2023-03-15T08:07:04.841Z,7848.00
2023-03-15T08:08:04.849Z,7564.00
2023-03-15T08:09:04.858Z,8036.00
2023-03-15T08:10:04.867Z,9428.00
2023-03-15T08:11:04.881Z,8360.00
2023-03-15T08:12:04.900Z,8140.00
2023-03-15T08:13:04.904Z,10508.00
2023-03-15T08:14:04.922Z,13696.00
2023-03-15T08:15:04.923Z,14152.00
2023-03-15T08:16:05.004Z,15448.00
2023-03-15T08:17:04.950Z,16080.00
2023-03-15T08:18:05.935Z,15508.00
2023-03-15T08:19:05.006Z,16000.00
2023-03-15T08:20:05.008Z,15944.00
2023-03-15T08:21:05.004Z,14440.00
2023-03-15T08:22:05.008Z,13320.00
2023-03-15T08:23:05.012Z,13608.00
2023-03-15T08:24:05.043Z,13864.00
2023-03-15T08:25:05.055Z,13436.00
2023-03-15T08:26:05.056Z,14116.00
2023-03-15T08:27:05.098Z,12324.00
2023-03-15T08:28:05.073Z,10560.00
2023-03-15T08:29:05.084Z,8688.00
2023-03-15T08:30:05.090Z,9000.00
2023-03-15T08:31:05.105Z,11860.00
2023-03-15T08:32:05.154Z,15272.00
2023-03-15T08:33:05.265Z,13596.00
2023-03-15T08:34:05.135Z,11352.00
2023-03-15T08:35:05.150Z,10108.00
2023-03-15T08:36:05.213Z,11128.00
2023-03-15T08:37:05.177Z,13660.00
2023-03-15T08:38:05.193Z,12668.00
2023-03-15T08:39:05.197Z,10072.00
2023-03-15T08:40:05.206Z,11896.00
2023-03-15T08:41:05.219Z,12396.00
2023-03-15T08:42:05.228Z,10672.00
2023-03-15T08:43:05.238Z,10396.00
2023-03-15T08:44:05.252Z,10920.00
2023-03-15T08:45:05.267Z,8552.00
2023-03-15T08:46:05.345Z,7728.00
2023-03-15T08:47:05.332Z,8684.00
2023-03-15T08:48:05.295Z,10532.00
2023-03-15T08:49:05.310Z,12388.00
2023-03-15T08:50:05.320Z,11020.00
2023-03-15T08:51:05.334Z,10308.00
2023-03-15T08:52:05.338Z,10752.00
2023-03-15T08:53:05.356Z,11604.00
2023-03-15T08:54:05.366Z,11380.00
2023-03-15T08:55:05.373Z,10876.00
2023-03-15T08:56:05.427Z,9684.00
2023-03-15T08:57:05.397Z,10276.00
2023-03-15T08:58:05.405Z,10324.00
2023-03-15T08:59:05.419Z,11064.00
2023-03-15T09:00:05.432Z,12032.00
2023-03-15T09:01:05.448Z,14256.00
2023-03-15T09:02:05.505Z,15176.00
2023-03-15T09:03:05.464Z,16496.00
2023-03-15T09:04:05.506Z,16144.00
2023-03-15T09:05:05.486Z,16516.00
2023-03-15T09:06:05.499Z,17632.00
2023-03-15T09:07:05.508Z,19552.00
2023-03-15T09:08:05.524Z,17312.00
2023-03-15T09:09:05.544Z,16128.00
2023-03-15T09:10:05.749Z,18912.00
2023-03-15T09:11:05.553Z,19936.00
2023-03-15T09:12:05.563Z,19296.00
2023-03-15T09:13:05.579Z,19040.00
2023-03-15T09:14:05.589Z,19200.00
2023-03-15T09:15:07.570Z,18784.00
2023-03-15T09:16:05.615Z,19104.00
2023-03-15T09:17:05.653Z,18752.00
2023-03-15T09:18:05.635Z,18592.00
2023-03-15T09:19:05.665Z,17792.00
2023-03-15T09:20:05.669Z,15152.00
2023-03-15T09:21:05.673Z,18112.00
2023-03-15T09:22:16.952Z,19936.00
2023-03-15T09:23:05.699Z,17408.00
2023-03-15T09:24:05.710Z,15492.00
2023-03-15T09:25:05.739Z,15120.00
2023-03-15T09:26:05.743Z,14224.00
2023-03-15T09:27:05.752Z,13744.00
2023-03-15T09:28:05.815Z,13592.00
2023-03-15T09:29:05.781Z,12812.00
2023-03-15T09:30:05.791Z,13084.00
2023-03-15T09:31:05.820Z,14784.00
2023-03-15T09:32:05.856Z,15564.00
2023-03-15T09:33:05.921Z,16840.00
2023-03-15T09:34:05.846Z,17536.00
2023-03-15T09:35:05.876Z,15424.00
2023-03-15T09:36:05.990Z,13400.00
2023-03-15T09:37:05.891Z,12744.00
2023-03-15T09:38:05.906Z,11928.00
2023-03-15T09:39:05.914Z,10684.00
2023-03-15T09:40:05.916Z,10696.00
2023-03-15T09:41:05.933Z,11928.00
2023-03-15T09:42:06.564Z,13404.00
2023-03-15T09:43:05.955Z,15992.00
2023-03-15T09:44:05.983Z,15492.00
2023-03-15T09:45:05.983Z,15052.00
2023-03-15T09:46:06.041Z,16220.00
2023-03-15T09:47:06.028Z,19456.00
2023-03-15T09:48:06.016Z,21792.00
2023-03-15T09:49:06.062Z,22720.00
2023-03-15T09:50:06.038Z,19936.00
2023-03-15T09:51:06.056Z,16520.00
2023-03-15T09:52:06.062Z,16840.00
2023-03-15T09:53:06.079Z,17984.00
2023-03-15T09:54:06.090Z,17280.00
2023-03-15T09:55:06.101Z,17376.00
2023-03-15T09:56:06.117Z,15180.00
2023-03-15T09:57:06.127Z,12640.00
2023-03-15T09:58:06.139Z,12764.00
2023-03-15T09:59:06.173Z,13208.00
2023-03-15T10:00:06.165Z,15104.00
2023-03-15T10:01:06.263Z,15576.00
2023-03-15T10:02:06.188Z,16516.00
2023-03-15T10:03:06.207Z,17072.00
2023-03-15T10:04:06.314Z,17664.00
2023-03-15T10:05:06.236Z,20544.00
2023-03-15T10:06:06.244Z,20768.00
2023-03-15T10:07:06.251Z,17856.00
2023-03-15T10:08:06.264Z,15612.00
2023-03-15T10:09:06.278Z,14512.00
2023-03-15T10:10:06.287Z,16160.00
2023-03-15T10:11:06.310Z,15632.00
2023-03-15T10:12:06.356Z,12880.00
2023-03-15T10:13:06.326Z,11768.00
2023-03-15T10:14:06.342Z,11136.00
2023-03-15T10:15:06.349Z,11428.00
2023-03-15T10:16:06.431Z,12600.00
2023-03-15T10:17:06.376Z,14692.00
2023-03-15T10:18:06.387Z,16572.00
2023-03-15T10:19:06.401Z,17536.00
2023-03-15T10:20:06.415Z,19424.00
2023-03-15T10:21:07.683Z,18368.00
2023-03-15T10:22:06.439Z,18176.00
2023-03-15T10:23:06.453Z,20352.00
2023-03-15T10:24:06.463Z,22240.00
2023-03-15T10:25:06.502Z,21888.00
2023-03-15T10:26:06.489Z,21824.00
2023-03-15T10:27:06.500Z,20192.00
2023-03-15T10:28:06.512Z,19104.00
2023-03-15T10:29:06.528Z,17280.00
2023-03-15T10:30:06.542Z,14352.00
2023-03-15T10:31:06.584Z,12704.00
2023-03-15T10:32:06.585Z,9732.00
2023-03-15T10:33:06.574Z,8272.00
2023-03-15T10:34:06.584Z,9072.00
2023-03-15T10:35:06.600Z,8872.00
2023-03-15T10:36:11.398Z,6216.00
2023-03-15T10:37:06.624Z,5296.00
2023-03-15T10:38:06.634Z,5360.00
2023-03-15T10:39:06.649Z,5972.00
2023-03-15T10:40:06.664Z,6540.00
2023-03-15T10:41:06.678Z,8484.00
2023-03-15T10:42:06.687Z,10184.00
2023-03-15T10:43:06.866Z,11684.00
2023-03-15T10:44:06.711Z,13128.00
2023-03-15T10:45:06.722Z,12788.00
2023-03-15T10:46:06.827Z,12460.00
2023-03-15T10:47:21.441Z,10748.00
2023-03-15T10:48:06.760Z,8164.00
2023-03-15T10:49:06.790Z,7496.00
2023-03-15T10:50:06.783Z,7396.00
2023-03-15T10:51:06.811Z,8004.00
2023-03-15T10:52:06.808Z,7724.00
2023-03-15T10:53:06.820Z,10204.00
2023-03-15T10:54:06.835Z,14072.00
2023-03-15T10:55:06.846Z,17048.00
2023-03-15T10:56:06.856Z,19488.00
2023-03-15T10:57:06.866Z,18784.00
2023-03-15T10:58:06.877Z,14300.00
2023-03-15T10:59:12.783Z,11540.00
2023-03-15T11:00:06.903Z,9784.00
2023-03-15T11:01:06.914Z,8408.00
2023-03-15T11:02:06.982Z,8024.00
2023-03-15T11:03:06.985Z,9052.00
2023-03-15T11:04:06.959Z,10496.00
2023-03-15T11:05:06.969Z,11368.00
2023-03-15T11:06:06.976Z,11360.00
2023-03-15T11:07:06.989Z,12012.00
2023-03-15T11:08:07.001Z,12528.00
2023-03-15T11:09:07.012Z,12568.00
2023-03-15T11:10:07.024Z,11912.00
2023-03-15T11:11:07.041Z,12304.00
2023-03-15T11:12:07.050Z,11812.00
2023-03-15T11:13:07.062Z,8896.00
2023-03-15T11:14:07.071Z,8536.00
2023-03-15T11:15:07.084Z,9712.00
2023-03-15T11:16:07.109Z,11452.00
2023-03-15T11:17:07.105Z,11212.00
2023-03-15T11:18:09.378Z,10188.00
2023-03-15T11:19:07.134Z,9396.00
2023-03-15T11:20:07.146Z,9856.00
2023-03-15T11:21:07.156Z,10028.00
2023-03-15T11:22:07.167Z,9776.00
2023-03-15T11:23:07.179Z,8100.00
2023-03-15T11:24:07.192Z,7700.00
2023-03-15T11:25:07.207Z,8672.00
2023-03-15T11:26:07.236Z,9236.00
2023-03-15T11:27:07.239Z,9876.00
2023-03-15T11:28:07.240Z,10052.00
2023-03-15T11:29:07.259Z,9084.00
2023-03-15T11:30:07.266Z,9128.00
2023-03-15T11:31:07.318Z,10092.00
2023-03-15T11:32:07.287Z,10708.00
2023-03-15T11:33:07.410Z,11400.00
2023-03-15T11:34:07.314Z,11156.00
2023-03-15T11:35:07.323Z,11284.00
2023-03-15T11:36:07.339Z,11852.00
2023-03-15T11:37:08.894Z,12192.00
2023-03-15T11:38:15.236Z,12052.00
2023-03-15T11:39:07.374Z,10820.00
2023-03-15T11:40:12.155Z,11900.00
2023-03-15T11:41:07.399Z,12892.00
2023-03-15T11:42:08.481Z,12108.00
2023-03-15T11:43:07.439Z,11180.00
2023-03-15T11:44:07.434Z,10516.00
2023-03-15T11:45:07.452Z,10484.00
2023-03-15T11:46:07.505Z,9464.00
2023-03-15T11:47:07.501Z,8128.00
2023-03-15T11:48:07.482Z,7268.00
2023-03-15T11:49:07.494Z,7232.00
2023-03-15T11:50:07.505Z,7628.00
2023-03-15T11:51:07.523Z,8204.00
2023-03-15T11:52:07.557Z,7380.00
2023-03-15T11:53:07.541Z,7160.00
2023-03-15T11:54:07.560Z,7280.00
2023-03-15T11:55:07.565Z,7744.00
2023-03-15T11:56:07.579Z,8040.00
2023-03-15T11:57:07.587Z,8260.00
2023-03-15T11:58:07.601Z,7716.00
2023-03-15T11:59:07.613Z,7984.00
2023-03-15T12:00:07.664Z,8800.00
2023-03-15T12:01:07.638Z,9560.00
2023-03-15T12:02:07.674Z,9064.00
2023-03-15T12:03:07.692Z,7516.00
2023-03-15T12:04:07.674Z,5920.00
2023-03-15T12:05:17.657Z,5832.00
2023-03-15T12:06:07.694Z,6340.00
2023-03-15T12:07:07.711Z,5840.00
2023-03-15T12:08:07.740Z,5324.00
2023-03-15T12:09:07.736Z,5508.00
2023-03-15T12:10:07.744Z,5344.00
2023-03-15T12:11:07.760Z,5044.00
2023-03-15T12:12:07.786Z,4948.00
2023-03-15T12:13:07.801Z,5268.00
2023-03-15T12:14:07.808Z,5156.00
2023-03-15T12:15:07.842Z,5204.00
2023-03-15T12:16:07.810Z,5640.00
2023-03-15T12:17:07.823Z,5836.00
2023-03-15T12:18:07.836Z,6004.00
2023-03-15T12:19:07.845Z,6316.00
2023-03-15T12:20:07.856Z,6252.00
2023-03-15T12:21:07.902Z,5956.00
2023-03-15T12:22:07.877Z,5752.00
2023-03-15T12:23:07.892Z,5492.00
2023-03-15T12:24:07.905Z,5340.00
2023-03-15T12:25:07.912Z,5296.00
2023-03-15T12:26:07.930Z,5320.00
2023-03-15T12:27:07.941Z,5360.00
2023-03-15T12:28:07.946Z,5336.00